createdAt,value
2022-10-04T00:00:50.045Z,4.90
2022-10-04T00:03:54.020Z,4.70
2022-10-04T00:06:47.597Z,4.90
2022-10-04T00:09:46.215Z,5.00
2022-10-04T00:12:38.603Z,4.70
2022-10-04T00:15:31.017Z,4.70
2022-10-04T00:18:27.901Z,4.80
2022-10-04T00:21:17.958Z,4.70
2022-10-04T00:24:18.967Z,4.50
2022-10-04T00:27:19.146Z,4.20
2022-10-04T00:30:22.746Z,4.50
2022-10-04T00:33:12.905Z,4.30
2022-10-04T00:36:04.014Z,4.30
2022-10-04T00:39:49.609Z,4.50
2022-10-04T00:42:49.123Z,4.30
2022-10-04T00:45:41.103Z,4.20
2022-10-04T00:48:39.782Z,4.20
2022-10-04T00:51:31.438Z,4.10
2022-10-04T00:54:23.454Z,4.00
2022-10-04T00:57:17.109Z,4.20
2022-10-04T01:00:11.439Z,4.10
2022-10-04T01:03:02.732Z,3.90
2022-10-04T01:05:55.297Z,4.00
2022-10-04T01:08:49.176Z,3.70
2022-10-04T01:11:42.745Z,3.40
2022-10-04T01:14:41.509Z,4.10
2022-10-04T01:17:31.557Z,3.30
2022-10-04T01:20:32.582Z,3.70
2022-10-04T01:23:38.046Z,3.60
2022-10-04T01:26:45.380Z,3.80
2022-10-04T01:29:36.005Z,3.60
2022-10-04T01:32:26.298Z,3.70
2022-10-04T01:35:19.898Z,3.40
2022-10-04T01:38:09.913Z,3.60
2022-10-04T01:41:00.128Z,3.40
2022-10-04T01:43:52.054Z,3.40
2022-10-04T01:46:42.214Z,3.60
2022-10-04T01:49:34.012Z,3.60
2022-10-04T01:52:26.760Z,3.10
2022-10-04T01:55:18.872Z,3.30
2022-10-04T01:58:13.164Z,3.40
2022-10-04T02:01:11.018Z,3.30
2022-10-04T02:04:03.318Z,3.20
2022-10-04T02:06:55.128Z,2.90
2022-10-04T02:09:48.129Z,3.30
2022-10-04T02:12:38.477Z,2.80
2022-10-04T02:15:29.527Z,3.00
2022-10-04T02:18:21.004Z,3.20
2022-10-04T02:21:11.083Z,3.30
2022-10-04T02:24:01.530Z,3.10
2022-10-04T02:26:52.288Z,2.80
2022-10-04T02:29:42.593Z,3.30
2022-10-04T02:32:52.244Z,3.00
2022-10-04T02:35:46.268Z,3.00
2022-10-04T02:38:37.616Z,2.80
2022-10-04T02:41:31.245Z,3.00
2022-10-04T02:44:24.419Z,2.90
2022-10-04T02:47:17.585Z,2.70
2022-10-04T02:50:13.666Z,2.80
2022-10-04T02:56:02.090Z,2.80
2022-10-04T02:58:52.241Z,3.00
2022-10-04T03:01:49.195Z,2.70
2022-10-04T03:04:40.513Z,3.00
2022-10-04T03:07:31.409Z,2.50
2022-10-04T03:10:21.663Z,2.50
2022-10-04T03:13:11.777Z,2.80
2022-10-04T03:16:02.433Z,3.00
2022-10-04T03:18:52.969Z,2.80
2022-10-04T03:21:43.530Z,3.00
2022-10-04T03:24:36.727Z,3.20
2022-10-04T03:27:28.721Z,3.30
2022-10-04T03:30:19.523Z,3.20
2022-10-04T03:33:15.637Z,3.40
2022-10-04T03:36:06.907Z,3.20
2022-10-04T03:38:58.012Z,3.40
2022-10-04T03:41:48.451Z,3.10
2022-10-04T03:44:38.516Z,3.20
2022-10-04T03:47:30.842Z,3.70
2022-10-04T03:50:24.068Z,3.80
2022-10-04T03:53:18.948Z,3.80
2022-10-04T03:56:12.889Z,4.00
2022-10-04T03:59:05.294Z,3.60
2022-10-04T04:02:06.092Z,4.10
2022-10-04T04:05:03.210Z,4.30
2022-10-04T04:08:14.250Z,4.50
2022-10-04T04:11:06.430Z,4.00
2022-10-04T04:14:03.573Z,3.90
2022-10-04T04:16:54.913Z,3.80
2022-10-04T04:19:45.769Z,4.30
2022-10-04T04:22:38.753Z,4.70
2022-10-04T04:25:31.774Z,4.60
2022-10-04T04:28:26.303Z,4.50
2022-10-04T04:31:22.035Z,4.60
2022-10-04T04:34:21.707Z,5.00
2022-10-04T04:37:11.706Z,4.90
2022-10-04T04:40:19.566Z,5.00
2022-10-04T04:43:14.750Z,5.30
2022-10-04T04:46:26.108Z,5.20
2022-10-04T04:49:16.720Z,5.20
2022-10-04T04:52:08.014Z,5.30
2022-10-04T04:54:58.204Z,5.70
2022-10-04T04:57:48.402Z,5.70
2022-10-04T05:00:38.994Z,6.10
2022-10-04T05:03:34.138Z,5.80
2022-10-04T05:06:28.302Z,6.40
2022-10-04T05:09:30.253Z,6.60
2022-10-04T05:12:22.560Z,6.80
2022-10-04T05:15:13.125Z,7.00
2022-10-04T05:18:12.215Z,7.10
2022-10-04T05:21:07.374Z,6.70
2022-10-04T05:23:57.625Z,7.30
2022-10-04T05:26:50.845Z,7.00
2022-10-04T05:29:50.224Z,7.50
2022-10-04T05:32:49.580Z,7.10
2022-10-04T05:35:54.580Z,7.70
2022-10-04T05:38:49.008Z,7.40
2022-10-04T05:41:42.257Z,7.20
2022-10-04T05:44:37.392Z,7.90
2022-10-04T05:47:29.001Z,7.60
2022-10-04T05:50:23.454Z,8.50
2022-10-04T05:53:25.989Z,7.70
2022-10-04T05:56:30.184Z,8.30
2022-10-04T05:59:34.662Z,8.20
2022-10-04T06:02:36.546Z,8.70
2022-10-04T06:05:30.734Z,7.90
2022-10-04T06:08:31.725Z,8.80
2022-10-04T06:11:35.999Z,8.60
2022-10-04T06:14:47.691Z,8.50
2022-10-04T06:18:04.098Z,8.60
2022-10-04T06:21:18.407Z,8.60
2022-10-04T06:24:13.499Z,8.80
2022-10-04T06:27:09.021Z,8.70
2022-10-04T06:30:01.670Z,9.00
2022-10-04T06:33:25.394Z,8.50
2022-10-04T06:36:59.495Z,8.10
2022-10-04T06:40:25.480Z,8.00
2022-10-04T06:43:45.926Z,8.10
2022-10-04T06:46:42.897Z,9.20
2022-10-04T06:49:38.969Z,8.00
2022-10-04T06:55:49.426Z,6.30
2022-10-04T06:59:06.231Z,5.30
2022-10-04T07:02:00.280Z,4.30
2022-10-04T07:05:07.966Z,3.80
2022-10-04T07:08:09.923Z,3.30
2022-10-04T07:11:03.238Z,2.70
2022-10-04T07:13:57.161Z,2.80
2022-10-04T07:16:50.540Z,3.00
2022-10-04T07:19:45.346Z,3.10
2022-10-04T07:22:41.613Z,2.70
2022-10-04T07:25:33.934Z,2.50
2022-10-04T07:28:45.480Z,2.10
2022-10-04T07:31:36.326Z,2.30
2022-10-04T07:34:28.235Z,2.40
2022-10-04T07:37:18.280Z,2.20
2022-10-04T07:40:17.379Z,2.30
2022-10-04T07:43:10.413Z,2.20
2022-10-04T07:46:11.813Z,1.90
2022-10-04T07:49:02.282Z,2.30
2022-10-04T07:52:31.849Z,2.10
2022-10-04T07:55:47.652Z,2.40
2022-10-04T07:58:45.944Z,2.10
2022-10-04T08:01:40.110Z,2.00
2022-10-04T08:04:39.685Z,2.20
2022-10-04T08:07:37.272Z,2.20
2022-10-04T08:10:29.922Z,2.20
2022-10-04T08:13:26.491Z,2.40
2022-10-04T08:16:26.030Z,2.60
2022-10-04T08:19:38.811Z,2.40
2022-10-04T08:22:47.713Z,2.90
2022-10-04T08:25:44.507Z,3.10
2022-10-04T08:29:00.786Z,2.50
2022-10-04T08:32:05.115Z,2.70
2022-10-04T08:35:15.847Z,2.40
2022-10-04T08:38:44.476Z,3.00
2022-10-04T08:42:10.611Z,2.70
2022-10-04T08:45:27.672Z,2.70
2022-10-04T08:49:22.899Z,2.80
2022-10-04T08:52:48.372Z,2.80
2022-10-04T08:56:05.277Z,3.00
2022-10-04T08:59:26.650Z,3.00
2022-10-04T09:03:00.239Z,3.90
2022-10-04T09:06:01.366Z,3.10
2022-10-04T09:09:56.432Z,3.10
2022-10-04T09:13:21.795Z,2.80
2022-10-04T09:16:17.935Z,2.80
2022-10-04T09:22:19.617Z,3.30
2022-10-04T09:25:39.319Z,3.00
2022-10-04T09:29:08.742Z,3.40
2022-10-04T09:32:38.949Z,3.30
2022-10-04T09:36:08.276Z,3.20
2022-10-04T09:39:30.953Z,3.40
2022-10-04T09:42:56.128Z,3.60
2022-10-04T09:46:08.454Z,3.70
2022-10-04T09:49:04.348Z,3.60
2022-10-04T09:52:08.300Z,3.30
2022-10-04T09:55:13.271Z,3.50
2022-10-04T09:58:33.658Z,3.60
2022-10-04T10:01:27.883Z,3.40
2022-10-04T10:04:48.129Z,3.50
2022-10-04T10:07:42.970Z,3.50
2022-10-04T10:10:57.609Z,3.70
2022-10-04T10:14:27.601Z,3.50
2022-10-04T10:17:26.921Z,3.60
2022-10-04T10:20:46.371Z,4.00
2022-10-04T10:24:03.048Z,3.80
2022-10-04T10:27:16.598Z,4.30
2022-10-04T10:30:26.176Z,4.20
2022-10-04T10:33:38.048Z,4.50
2022-10-04T10:36:40.213Z,4.20
2022-10-04T10:39:50.216Z,4.40
2022-10-04T10:43:16.955Z,4.10
2022-10-04T10:46:33.280Z,4.10
2022-10-04T10:49:35.372Z,2.70
2022-10-04T10:53:08.416Z,2.90
2022-10-04T10:56:25.683Z,2.60
2022-10-04T11:00:16.909Z,3.40
2022-10-04T11:03:24.709Z,3.10
2022-10-04T11:07:15.944Z,3.40
2022-10-04T11:10:52.060Z,3.00
2022-10-04T11:17:24.617Z,3.20
2022-10-04T11:20:33.528Z,2.90
2022-10-04T11:24:09.838Z,4.80
2022-10-04T11:27:17.872Z,3.50
2022-10-04T11:30:22.853Z,2.70
2022-10-04T11:33:56.898Z,2.40
2022-10-04T11:37:03.002Z,2.00
2022-10-04T11:40:09.116Z,2.40
2022-10-04T11:43:31.345Z,2.20
2022-10-04T11:46:45.762Z,2.30
2022-10-04T11:49:50.105Z,2.50
2022-10-04T11:53:13.349Z,2.20
2022-10-04T11:56:36.331Z,2.20
2022-10-04T11:59:41.788Z,1.90
2022-10-04T12:03:27.270Z,1.70
2022-10-04T12:06:35.211Z,2.00
2022-10-04T12:09:31.601Z,1.70
2022-10-04T12:12:36.554Z,2.20
2022-10-04T12:15:53.493Z,2.80
2022-10-04T12:19:21.756Z,2.80
2022-10-04T12:23:05.542Z,2.80
2022-10-04T12:26:52.878Z,3.10
2022-10-04T12:30:26.909Z,2.40
2022-10-04T12:33:35.292Z,2.90
2022-10-04T12:37:10.867Z,2.50
2022-10-04T12:40:23.737Z,2.90
2022-10-04T12:43:24.482Z,2.30
2022-10-04T12:46:30.649Z,2.00
2022-10-04T12:49:59.850Z,1.80
2022-10-04T12:52:58.391Z,2.00
2022-10-04T12:56:07.513Z,2.20
2022-10-04T13:02:31.673Z,2.10
2022-10-04T13:05:28.101Z,2.10
2022-10-04T13:08:26.555Z,1.90
2022-10-04T13:11:54.499Z,2.10
2022-10-04T13:15:05.761Z,2.20
2022-10-04T13:18:08.425Z,2.30
2022-10-04T13:21:14.309Z,2.40
2022-10-04T13:24:14.238Z,2.30
2022-10-04T13:27:13.892Z,2.30
2022-10-04T13:30:22.971Z,2.30
2022-10-04T13:33:26.418Z,2.00
2022-10-04T13:36:56.201Z,2.50
2022-10-04T13:40:22.544Z,2.40
2022-10-04T13:43:49.318Z,2.00
2022-10-04T13:46:46.738Z,2.40
2022-10-04T13:49:51.805Z,2.30
2022-10-04T13:53:05.318Z,2.40
2022-10-04T13:56:18.541Z,2.40
2022-10-04T13:59:18.627Z,2.50
2022-10-04T14:02:35.322Z,2.20
2022-10-04T14:06:43.712Z,2.60
2022-10-04T14:10:08.785Z,2.50
2022-10-04T14:13:33.679Z,2.40
2022-10-04T14:17:11.436Z,2.40
2022-10-04T14:20:46.900Z,2.40
2022-10-04T14:23:57.423Z,2.20
2022-10-04T14:27:38.941Z,2.20
2022-10-04T14:30:33.847Z,2.40
2022-10-04T14:34:01.452Z,2.60
2022-10-04T14:37:36.287Z,2.60
2022-10-04T14:41:29.699Z,2.60
2022-10-04T14:45:04.371Z,2.20
2022-10-04T14:48:58.905Z,2.50
2022-10-04T14:52:03.716Z,2.80
2022-10-04T14:55:33.378Z,2.50
2022-10-04T14:58:31.697Z,2.60
2022-10-04T15:01:24.673Z,2.70
2022-10-04T15:04:28.704Z,2.60
2022-10-04T15:07:20.883Z,2.40
2022-10-04T15:10:14.742Z,2.40
2022-10-04T15:13:12.151Z,2.60
2022-10-04T15:16:13.934Z,2.40
2022-10-04T15:19:08.729Z,2.50
2022-10-04T15:22:11.060Z,2.40
2022-10-04T15:25:01.253Z,2.50
2022-10-04T15:27:54.249Z,2.40
2022-10-04T15:30:53.262Z,2.70
2022-10-04T15:33:47.036Z,2.70
2022-10-04T15:36:52.295Z,2.60
2022-10-04T15:40:09.418Z,2.50
2022-10-04T15:43:12.935Z,2.50
2022-10-04T15:46:34.667Z,3.00
2022-10-04T15:49:37.235Z,3.00
2022-10-04T15:53:09.837Z,2.80
2022-10-04T15:56:09.576Z,2.50
2022-10-04T15:59:29.930Z,2.70
2022-10-04T16:02:50.722Z,2.70
2022-10-04T16:05:43.875Z,2.80
2022-10-04T16:10:32.053Z,3.00
2022-10-04T16:13:09.770Z,3.00
2022-10-04T16:16:49.548Z,3.30
2022-10-04T16:19:51.517Z,3.90
2022-10-04T16:22:41.732Z,4.10
2022-10-04T16:25:38.465Z,4.20
2022-10-04T16:29:08.619Z,4.70
2022-10-04T16:32:01.067Z,4.80
2022-10-04T16:34:52.657Z,5.00
2022-10-04T16:37:46.570Z,4.50
2022-10-04T16:40:55.575Z,4.70
2022-10-04T16:43:53.174Z,5.20
2022-10-04T16:46:45.608Z,4.50
2022-10-04T16:49:43.379Z,4.80
2022-10-04T16:52:48.135Z,4.60
2022-10-04T16:55:52.825Z,5.10
2022-10-04T16:58:56.037Z,4.90
2022-10-04T17:02:23.813Z,4.90
2022-10-04T17:05:47.138Z,5.20
2022-10-04T17:08:54.462Z,5.00
2022-10-04T17:11:47.585Z,5.10
2022-10-04T17:14:56.942Z,5.10
2022-10-04T17:17:49.079Z,5.30
2022-10-04T17:20:53.527Z,5.90
2022-10-04T17:24:13.832Z,5.40
2022-10-04T17:27:33.650Z,5.90
2022-10-04T17:30:25.035Z,6.10
2022-10-04T17:33:25.047Z,6.00
2022-10-04T17:36:38.684Z,5.80
2022-10-04T17:39:43.925Z,5.60
2022-10-04T17:42:39.943Z,6.60
2022-10-04T17:49:02.118Z,6.30
2022-10-04T17:52:12.938Z,5.80
2022-10-04T17:55:16.640Z,6.60
2022-10-04T17:58:12.168Z,6.70
2022-10-04T18:01:07.425Z,6.50
2022-10-04T18:04:08.413Z,6.70
2022-10-04T18:07:04.428Z,6.60
2022-10-04T18:09:56.002Z,6.70
2022-10-04T18:12:50.947Z,6.80
2022-10-04T18:15:48.359Z,6.80
2022-10-04T18:18:43.459Z,7.10
2022-10-04T18:21:36.806Z,7.00
2022-10-04T18:24:30.451Z,7.50
2022-10-04T18:27:25.304Z,6.80
2022-10-04T18:30:18.433Z,7.20
2022-10-04T18:33:14.432Z,7.10
2022-10-04T18:36:12.660Z,7.70
2022-10-04T18:39:17.942Z,7.10
2022-10-04T18:42:22.866Z,7.10
2022-10-04T18:45:26.749Z,7.40
2022-10-04T18:48:19.983Z,7.60
2022-10-04T18:51:30.422Z,7.20
2022-10-04T18:54:24.720Z,8.00
2022-10-04T18:57:31.719Z,7.60
2022-10-04T19:00:41.223Z,7.40
2022-10-04T19:03:36.207Z,7.10
2022-10-04T19:06:30.182Z,7.30
2022-10-04T19:09:24.464Z,7.60
2022-10-04T19:12:16.596Z,7.10
2022-10-04T19:15:18.321Z,7.30
2022-10-04T19:18:27.201Z,7.50
2022-10-04T19:21:28.575Z,7.10
2022-10-04T19:24:57.783Z,7.80
2022-10-04T19:28:22.712Z,7.30
2022-10-04T19:31:25.506Z,7.80
2022-10-04T19:34:29.023Z,7.60
2022-10-04T19:37:23.643Z,8.10
2022-10-04T19:40:20.435Z,8.20
2022-10-04T19:43:15.169Z,8.20
2022-10-04T19:46:14.698Z,7.90
2022-10-04T19:49:09.226Z,7.90
2022-10-04T19:52:31.491Z,8.00
2022-10-04T19:55:31.912Z,7.80
2022-10-04T19:58:39.805Z,8.00
2022-10-04T20:01:38.645Z,7.40
2022-10-04T20:04:38.301Z,7.90
2022-10-04T20:07:28.661Z,8.10
2022-10-04T20:10:37.264Z,8.70
2022-10-04T20:13:30.805Z,8.40
2022-10-04T20:17:04.044Z,7.70
2022-10-04T20:20:07.719Z,8.20
2022-10-04T20:23:07.328Z,8.50
2022-10-04T20:26:10.763Z,8.50
2022-10-04T20:30:19.069Z,8.30
2022-10-04T20:33:13.063Z,8.90
2022-10-04T20:36:11.842Z,8.90
2022-10-04T20:39:06.137Z,8.70
2022-10-04T20:42:25.989Z,9.50
2022-10-04T20:45:27.366Z,8.70
2022-10-04T20:48:22.611Z,9.40
2022-10-04T20:51:21.862Z,10.20
2022-10-04T20:54:22.718Z,10.90
2022-10-04T20:57:17.848Z,10.00
2022-10-04T21:00:29.216Z,11.50
2022-10-04T21:03:20.578Z,11.90
2022-10-04T21:06:16.412Z,12.10
2022-10-04T21:09:19.928Z,11.90
2022-10-04T21:12:34.528Z,12.50
2022-10-04T21:15:29.362Z,12.50
2022-10-04T21:18:22.280Z,12.30
2022-10-04T21:21:14.443Z,12.70
2022-10-04T21:24:34.835Z,13.00
2022-10-04T21:27:31.115Z,12.70
2022-10-04T21:30:22.532Z,12.90
2022-10-04T21:33:13.032Z,13.30
2022-10-04T21:36:05.520Z,12.60
2022-10-04T21:38:55.813Z,13.40
2022-10-04T21:41:46.320Z,13.30
2022-10-04T21:44:36.612Z,13.50
2022-10-04T21:47:30.899Z,13.00
2022-10-04T21:50:22.685Z,13.00
2022-10-04T21:53:13.989Z,14.00
2022-10-04T21:56:06.088Z,13.20
2022-10-04T21:59:00.741Z,12.90
2022-10-04T22:05:50.411Z,13.60
2022-10-04T22:08:40.222Z,13.50
2022-10-04T22:11:30.180Z,14.10
2022-10-04T22:14:19.964Z,13.90
2022-10-04T22:17:10.997Z,14.50
2022-10-04T22:20:15.029Z,13.60
2022-10-04T22:23:15.186Z,14.30
2022-10-04T22:26:11.746Z,13.20
2022-10-04T22:29:07.240Z,13.50
2022-10-04T22:31:57.340Z,13.80
2022-10-04T22:34:47.352Z,14.00
2022-10-04T22:37:37.420Z,13.30
2022-10-04T22:40:29.035Z,13.60
2022-10-04T22:43:19.261Z,13.40
2022-10-04T22:46:16.448Z,12.80
2022-10-04T22:49:10.666Z,13.80
2022-10-04T22:52:02.057Z,12.80
2022-10-04T22:54:53.346Z,13.40
2022-10-04T22:57:43.125Z,13.20
2022-10-04T23:00:33.351Z,12.40
2022-10-04T23:03:28.065Z,13.30
2022-10-04T23:06:17.800Z,13.50
2022-10-04T23:09:07.625Z,13.50
2022-10-04T23:11:57.347Z,13.50
2022-10-04T23:14:47.193Z,12.60
2022-10-04T23:17:38.656Z,12.00
2022-10-04T23:20:29.655Z,12.90
2022-10-04T23:23:21.596Z,12.30
2022-10-04T23:26:17.361Z,12.60
2022-10-04T23:29:10.038Z,12.20
2022-10-04T23:32:00.130Z,12.00
2022-10-04T23:34:55.663Z,12.40
2022-10-04T23:37:46.943Z,11.90
2022-10-04T23:40:36.691Z,12.00
2022-10-04T23:43:28.625Z,12.00
2022-10-04T23:46:20.910Z,11.40
2022-10-04T23:49:14.591Z,11.30
2022-10-04T23:52:05.679Z,11.50
2022-10-04T23:54:55.664Z,11.40
2022-10-04T23:57:45.613Z,11.90
